Time;durP1;ratioP1;P1;durP2;ratioP2;P2;SDS_P1;SDS_P2;PMS_P1;PMS_P2;Temp;Humidity;BMP_temperature;BMP_pressure;BME280_temperature;BME280_humidity;BME280_pressure;Samples;Min_cycle;Max_cycle;Signal;HPM_P1;HPM_P2
2022/08/05 00:00:01;;;;;;;9.63;5.03;;;;;;;;;;5021475;28;20120;-66
2022/08/05 00:02:26;;;;;;;9.68;5.75;;;;;;;;;;5028465;28;20117;-66
2022/08/05 00:04:52;;;;;;;10.05;5.65;;;;;;;;;;5031669;28;20470;-66
2022/08/05 00:07:17;;;;;;;7.85;5.68;;;;;;;;;;5048910;28;20056;-66
2022/08/05 00:09:42;;;;;;;11.45;6.20;;;;;;;;;;5028750;28;20156;-66
2022/08/05 00:12:08;;;;;;;11.60;5.95;;;;;;;;;;5025206;28;20034;-66
2022/08/05 00:14:33;;;;;;;12.88;5.55;;;;;;;;;;5026697;28;20037;-66
2022/08/05 00:16:59;;;;;;;10.73;5.45;;;;;;;;;;5022853;28;20088;-66
2022/08/05 00:19:24;;;;;;;9.00;5.32;;;;;;;;;;5028193;28;20034;-66
2022/08/05 00:21:50;;;;;;;11.93;5.50;;;;;;;;;;5025776;28;20665;-66
2022/08/05 00:24:15;;;;;;;8.35;5.07;;;;;;;;;;5022794;28;20034;-66
2022/08/05 00:26:41;;;;;;;11.45;5.60;;;;;;;;;;5024292;28;20032;-66
2022/08/05 00:29:06;;;;;;;9.18;5.22;;;;;;;;;;5026427;28;20030;-66
2022/08/05 00:31:31;;;;;;;9.45;5.70;;;;;;;;;;5024801;28;20621;-66
2022/08/05 00:33:57;;;;;;;8.35;5.68;;;;;;;;;;5017050;28;20034;-66
2022/08/05 00:36:23;;;;;;;14.18;5.78;;;;;;;;;;5021533;28;20526;-66
2022/08/05 00:38:49;;;;;;;11.13;5.57;;;;;;;;;;5027467;28;20041;-66
2022/08/05 00:41:26;;;;;;;11.05;5.35;;;;;;;;;;5023706;28;20518;-66
2022/08/05 00:43:51;;;;;;;9.20;5.28;;;;;;;;;;5019510;28;20017;-66
2022/08/05 00:46:17;;;;;;;8.02;4.32;;;;;;;;;;5025119;28;20025;-66
2022/08/05 00:48:42;;;;;;;8.60;4.78;;;;;;;;;;5027091;28;20570;-66
2022/08/05 00:51:07;;;;;;;8.98;4.40;;;;;;;;;;5029159;28;20684;-66
2022/08/05 00:53:33;;;;;;;9.00;4.38;;;;;;;;;;5023855;28;20034;-65
2022/08/05 00:55:58;;;;;;;6.35;4.07;;;;;;;;;;5030027;28;20451;-66
2022/08/05 00:58:23;;;;;;;7.97;4.25;;;;;;;;;;5027912;28;20018;-66
2022/08/05 01:00:49;;;;;;;8.15;4.25;;;;;;;;;;5030529;28;20566;-66
2022/08/05 01:03:14;;;;;;;10.98;4.82;;;;;;;;;;5027459;28;20040;-66
2022/08/05 01:05:39;;;;;;;6.57;4.00;;;;;;;;;;5030171;28;20194;-66
2022/08/05 01:08:05;;;;;;;11.80;4.10;;;;;;;;;;5017643;28;20097;-66
2022/08/05 01:10:39;;;;;;;7.20;4.00;;;;;;;;;;5032117;28;20032;-66
2022/08/05 01:13:12;;;;;;;8.68;4.28;;;;;;;;;;5029682;28;20038;-66
2022/08/05 01:15:43;;;;;;;5.97;3.58;;;;;;;;;;5027687;28;20129;-66
2022/08/05 01:18:15;;;;;;;6.75;4.07;;;;;;;;;;5027483;28;20057;-66
2022/08/05 01:21:02;;;;;;;8.05;4.47;;;;;;;;;;5029633;28;20029;-66
2022/08/05 01:23:44;;;;;;;7.13;3.97;;;;;;;;;;5025790;28;20046;-66
2022/08/05 01:26:29;;;;;;;10.77;4.43;;;;;;;;;;5030298;28;20041;-66
2022/08/05 01:29:01;;;;;;;6.97;4.13;;;;;;;;;;5028439;28;20023;-66
2022/08/05 01:31:34;;;;;;;9.67;4.57;;;;;;;;;;5024853;28;20029;-66
2022/08/05 01:34:19;;;;;;;9.88;4.00;;;;;;;;;;5025856;28;20025;-66
2022/08/05 01:36:57;;;;;;;7.28;4.35;;;;;;;;;;5026828;28;20116;-66
2022/08/05 01:39:25;;;;;;;9.50;4.60;;;;;;;;;;5028145;28;20545;-66
2022/08/05 01:41:53;;;;;;;8.57;4.68;;;;;;;;;;5019440;28;20045;-66
2022/08/05 01:44:19;;;;;;;7.35;4.20;;;;;;;;;;5014539;28;20614;-66
2022/08/05 01:46:45;;;;;;;9.98;4.72;;;;;;;;;;5039469;28;20029;-66
2022/08/05 01:49:16;;;;;;;9.32;4.47;;;;;;;;;;5028874;28;20028;-66
2022/08/05 01:51:42;;;;;;;7.88;4.20;;;;;;;;;;5028413;28;20044;-66
2022/08/05 01:54:09;;;;;;;8.82;4.70;;;;;;;;;;5026768;28;20041;-66
2022/08/05 01:56:39;;;;;;;11.73;4.43;;;;;;;;;;5025181;28;20033;-66
2022/08/05 01:59:08;;;;;;;8.35;4.10;;;;;;;;;;5034072;28;20037;-66
2022/08/05 02:01:34;;;;;;;10.68;4.50;;;;;;;;;;5026905;28;20108;-66
2022/08/05 02:04:01;;;;;;;8.73;4.82;;;;;;;;;;5028092;28;20130;-66
2022/08/05 02:06:27;;;;;;;8.07;4.45;;;;;;;;;;5028101;28;20423;-66
2022/08/05 02:08:53;;;;;;;9.30;4.53;;;;;;;;;;5024817;28;20033;-66
2022/08/05 02:11:19;;;;;;;8.35;4.10;;;;;;;;;;5024755;28;20033;-66
2022/08/05 02:13:59;;;;;;;9.82;4.78;;;;;;;;;;5018262;28;20036;-66
2022/08/05 02:16:32;;;;;;;6.75;4.43;;;;;;;;;;5023610;28;20014;-66
2022/08/05 02:19:04;;;;;;;11.48;4.18;;;;;;;;;;5030178;28;20026;-66
2022/08/05 02:21:35;;;;;;;9.70;4.20;;;;;;;;;;5030567;28;20034;-66
2022/08/05 02:24:07;;;;;;;6.05;4.28;;;;;;;;;;5028366;28;20087;-66
2022/08/05 02:26:47;;;;;;;7.72;4.65;;;;;;;;;;5030413;28;20057;-66
2022/08/05 02:29:18;;;;;;;9.57;4.40;;;;;;;;;;5025825;28;20722;-66
2022/08/05 02:31:46;;;;;;;7.53;4.90;;;;;;;;;;5017871;28;20605;-66
2022/08/05 02:34:14;;;;;;;10.02;5.00;;;;;;;;;;5021868;28;20388;-66
2022/08/05 02:36:50;;;;;;;7.93;4.40;;;;;;;;;;5023752;28;20033;-66
2022/08/05 02:39:18;;;;;;;10.63;4.85;;;;;;;;;;5022750;28;20042;-66
2022/08/05 02:41:45;;;;;;;7.53;4.35;;;;;;;;;;5027982;28;20025;-66
2022/08/05 02:44:12;;;;;;;8.07;4.60;;;;;;;;;;5027676;28;20600;-66
2022/08/05 02:46:42;;;;;;;9.07;4.30;;;;;;;;;;5039951;28;20029;-66
2022/08/05 02:49:09;;;;;;;9.40;4.75;;;;;;;;;;5029816;28;20030;-65
2022/08/05 02:51:36;;;;;;;10.05;4.78;;;;;;;;;;5029723;28;20049;-66
2022/08/05 02:54:03;;;;;;;8.82;4.72;;;;;;;;;;5027409;28;20042;-66
2022/08/05 02:56:29;;;;;;;10.85;4.50;;;;;;;;;;5027963;28;20087;-66
2022/08/05 02:58:55;;;;;;;9.68;4.85;;;;;;;;;;5030994;28;20026;-66
2022/08/05 03:01:23;;;;;;;8.75;4.47;;;;;;;;;;5027419;28;20029;-66
2022/08/05 03:03:53;;;;;;;12.10;5.15;;;;;;;;;;5034508;28;20025;-66
2022/08/05 03:06:20;;;;;;;7.85;4.43;;;;;;;;;;5030854;28;20600;-66
2022/08/05 03:08:48;;;;;;;8.23;4.90;;;;;;;;;;5029678;28;20037;-66
2022/08/05 03:11:32;;;;;;;9.95;4.45;;;;;;;;;;5026350;28;20510;-66
2022/08/05 03:13:57;;;;;;;8.38;4.72;;;;;;;;;;5026910;28;20032;-66
2022/08/05 03:16:22;;;;;;;9.43;5.10;;;;;;;;;;5026653;28;20021;-66
2022/08/05 03:18:48;;;;;;;8.40;4.35;;;;;;;;;;5026755;28;20030;-66
2022/08/05 03:21:14;;;;;;;10.77;5.15;;;;;;;;;;5029429;28;20022;-66
2022/08/05 03:23:41;;;;;;;10.02;5.40;;;;;;;;;;5017899;28;20529;-66
2022/08/05 03:26:07;;;;;;;9.57;5.25;;;;;;;;;;5027978;28;20522;-66
2022/08/05 03:28:33;;;;;;;9.82;5.20;;;;;;;;;;5028419;28;20021;-66
2022/08/05 03:31:00;;;;;;;8.38;5.05;;;;;;;;;;5028102;28;20033;-66
2022/08/05 03:33:30;;;;;;;7.88;5.32;;;;;;;;;;5025465;28;20025;-66
2022/08/05 03:35:57;;;;;;;10.43;5.00;;;;;;;;;;5033030;28;20036;-66
2022/08/05 03:38:24;;;;;;;11.82;5.07;;;;;;;;;;5024521;28;20052;-66
2022/08/05 03:40:49;;;;;;;11.45;5.07;;;;;;;;;;5026804;28;20075;-66
2022/08/05 03:43:15;;;;;;;13.52;5.03;;;;;;;;;;5031228;28;20025;-66
2022/08/05 03:45:42;;;;;;;10.30;5.32;;;;;;;;;;5027498;28;20047;-66
2022/08/05 03:48:07;;;;;;;11.43;5.50;;;;;;;;;;5029395;28;20061;-66
2022/08/05 03:50:59;;;;;;;10.50;5.10;;;;;;;;;;5028170;28;20060;-66
2022/08/05 03:53:31;;;;;;;9.77;5.28;;;;;;;;;;5021639;28;20064;-66
2022/08/05 03:56:20;;;;;;;11.90;4.63;;;;;;;;;;5027742;28;20076;-65
2022/08/05 03:58:47;;;;;;;8.27;5.07;;;;;;;;;;5021970;28;20048;-66
2022/08/05 04:01:16;;;;;;;10.13;5.15;;;;;;;;;;5026486;28;20139;-65
2022/08/05 04:03:44;;;;;;;12.02;5.43;;;;;;;;;;5035758;28;20136;-66
2022/08/05 04:06:10;;;;;;;11.35;5.68;;;;;;;;;;5026467;28;20029;-66
2022/08/05 04:08:36;;;;;;;9.15;5.25;;;;;;;;;;5034685;28;20052;-66
2022/08/05 04:11:02;;;;;;;9.60;4.88;;;;;;;;;;5024480;28;20037;-65
2022/08/05 04:13:29;;;;;;;7.75;4.95;;;;;;;;;;5027796;28;20029;-66
2022/08/05 04:15:55;;;;;;;10.73;4.72;;;;;;;;;;5028996;28;20041;-66
2022/08/05 04:18:23;;;;;;;8.98;4.60;;;;;;;;;;5027148;28;20049;-66
2022/08/05 04:20:54;;;;;;;12.15;5.25;;;;;;;;;;5031108;28;20037;-65
2022/08/05 04:23:22;;;;;;;12.18;4.80;;;;;;;;;;5024832;28;20041;-66
2022/08/05 04:25:47;;;;;;;6.82;4.53;;;;;;;;;;5028898;28;20055;-66
2022/08/05 04:28:12;;;;;;;13.77;5.55;;;;;;;;;;5021966;28;20527;-66
2022/08/05 04:30:38;;;;;;;8.10;4.90;;;;;;;;;;5031582;28;20029;-66
2022/08/05 04:33:03;;;;;;;7.72;4.70;;;;;;;;;;5032990;28;20452;-66
2022/08/05 04:35:28;;;;;;;6.90;4.75;;;;;;;;;;5025316;28;20422;-66
2022/08/05 04:37:53;;;;;;;8.98;4.72;;;;;;;;;;5027108;28;20032;-66
2022/08/05 04:40:19;;;;;;;8.35;4.93;;;;;;;;;;5026299;28;20033;-66
2022/08/05 04:42:44;;;;;;;10.05;4.53;;;;;;;;;;5026515;28;20034;-66
2022/08/05 04:45:09;;;;;;;13.55;5.05;;;;;;;;;;5026813;28;20039;-66
2022/08/05 04:47:35;;;;;;;11.93;4.78;;;;;;;;;;5016118;28;20526;-66
2022/08/05 04:50:00;;;;;;;8.75;4.78;;;;;;;;;;5027534;28;20495;-66
2022/08/05 04:52:26;;;;;;;8.48;4.53;;;;;;;;;;5025742;28;20072;-66
2022/08/05 04:54:52;;;;;;;11.60;5.00;;;;;;;;;;5027486;28;20060;-66
2022/08/05 04:57:17;;;;;;;12.52;4.70;;;;;;;;;;5026660;28;20038;-66
2022/08/05 04:59:42;;;;;;;7.78;5.20;;;;;;;;;;5025718;28;20042;-66
2022/08/05 05:02:08;;;;;;;9.75;4.78;;;;;;;;;;5022820;28;20025;-66
2022/08/05 05:04:33;;;;;;;10.35;5.05;;;;;;;;;;5038562;28;20494;-66
2022/08/05 05:06:58;;;;;;;10.02;4.88;;;;;;;;;;5044673;28;20091;-66
2022/08/05 05:09:24;;;;;;;8.80;4.70;;;;;;;;;;5025058;28;20112;-68
2022/08/05 05:11:49;;;;;;;12.70;5.38;;;;;;;;;;5028954;28;20521;-68
2022/08/05 05:14:14;;;;;;;9.63;4.90;;;;;;;;;;5024547;28;20388;-68
2022/08/05 05:16:40;;;;;;;9.20;4.47;;;;;;;;;;5026429;28;20029;-68
2022/08/05 05:19:05;;;;;;;12.55;5.80;;;;;;;;;;5024520;28;20087;-69
2022/08/05 05:21:30;;;;;;;11.25;5.03;;;;;;;;;;5025053;28;20357;-66
2022/08/05 05:23:56;;;;;;;13.82;5.22;;;;;;;;;;5031219;28;20024;-66
2022/08/05 05:26:21;;;;;;;10.85;5.30;;;;;;;;;;5028377;28;20515;-66
2022/08/05 05:28:46;;;;;;;9.32;5.38;;;;;;;;;;5035287;28;20017;-66
2022/08/05 05:31:12;;;;;;;7.28;4.82;;;;;;;;;;5029971;28;20116;-66
2022/08/05 05:33:37;;;;;;;11.82;5.22;;;;;;;;;;5027498;28;20121;-66
2022/08/05 05:36:03;;;;;;;8.70;4.63;;;;;;;;;;5028668;28;20510;-65
2022/08/05 05:38:28;;;;;;;8.82;4.50;;;;;;;;;;5026269;28;20041;-66
2022/08/05 05:40:54;;;;;;;14.73;5.50;;;;;;;;;;5031266;28;20017;-66
2022/08/05 05:43:21;;;;;;;9.82;5.45;;;;;;;;;;5030550;28;20056;-66
2022/08/05 05:45:47;;;;;;;14.70;5.43;;;;;;;;;;5031307;28;20748;-66
2022/08/05 05:48:12;;;;;;;11.15;5.80;;;;;;;;;;5029232;28;20029;-66
2022/08/05 05:50:39;;;;;;;9.68;5.38;;;;;;;;;;5019421;28;20045;-66
2022/08/05 05:53:06;;;;;;;11.88;5.03;;;;;;;;;;5023943;28;20736;-66
2022/08/05 05:55:32;;;;;;;11.52;5.78;;;;;;;;;;5030903;28;20053;-66
2022/08/05 05:57:57;;;;;;;9.82;5.35;;;;;;;;;;5025594;28;20033;-66
2022/08/05 06:00:23;;;;;;;10.70;5.40;;;;;;;;;;5028853;28;20037;-66
2022/08/05 06:02:48;;;;;;;11.10;5.78;;;;;;;;;;5023647;28;20037;-65
2022/08/05 06:05:15;;;;;;;16.80;5.63;;;;;;;;;;5025508;28;20057;-66
2022/08/05 06:07:41;;;;;;;13.20;5.93;;;;;;;;;;5025701;28;20483;-66
2022/08/05 06:10:08;;;;;;;13.35;6.15;;;;;;;;;;5023640;28;20037;-66
2022/08/05 06:12:35;;;;;;;12.50;6.20;;;;;;;;;;5030174;28;20034;-66
2022/08/05 06:15:05;;;;;;;11.20;5.45;;;;;;;;;;5023664;28;20033;-66
2022/08/05 06:17:30;;;;;;;11.98;5.90;;;;;;;;;;5023101;28;20116;-66
2022/08/05 06:19:56;;;;;;;13.48;6.43;;;;;;;;;;5021884;28;20109;-66
2022/08/05 06:22:23;;;;;;;11.38;5.88;;;;;;;;;;5025663;28;20037;-66
2022/08/05 06:24:49;;;;;;;14.60;6.03;;;;;;;;;;5026419;28;20041;-66
2022/08/05 06:27:15;;;;;;;16.75;6.82;;;;;;;;;;5023382;28;20526;-66
2022/08/05 06:29:40;;;;;;;10.95;6.53;;;;;;;;;;5021847;28;20514;-66
2022/08/05 06:32:05;;;;;;;12.95;6.03;;;;;;;;;;5025208;28;20041;-65
2022/08/05 06:34:31;;;;;;;12.52;6.45;;;;;;;;;;5020425;28;20436;-66
2022/08/05 06:36:56;;;;;;;12.75;6.90;;;;;;;;;;5025954;28;20658;-66
2022/08/05 06:39:21;;;;;;;12.18;6.20;;;;;;;;;;5029894;28;20344;-65
2022/08/05 06:41:48;;;;;;;12.73;6.28;;;;;;;;;;5021877;28;20430;-65
2022/08/05 06:44:13;;;;;;;12.68;6.43;;;;;;;;;;5025120;28;20073;-66
2022/08/05 06:46:39;;;;;;;12.05;6.45;;;;;;;;;;5032700;28;20060;-66
2022/08/05 06:49:04;;;;;;;13.63;6.43;;;;;;;;;;5028573;28;20053;-66
2022/08/05 06:51:30;;;;;;;15.50;6.85;;;;;;;;;;5028380;28;20045;-66
2022/08/05 06:53:59;;;;;;;12.15;6.32;;;;;;;;;;5034218;28;20048;-66
2022/08/05 06:56:24;;;;;;;10.30;6.25;;;;;;;;;;5024201;28;20037;-66
2022/08/05 06:58:50;;;;;;;14.23;6.80;;;;;;;;;;5029545;28;20030;-66
2022/08/05 07:01:15;;;;;;;15.07;6.25;;;;;;;;;;5026975;28;20053;-66
2022/08/05 07:03:40;;;;;;;13.02;6.35;;;;;;;;;;5026028;28;20628;-66
2022/08/05 07:06:06;;;;;;;14.00;6.82;;;;;;;;;;5046323;28;20052;-66
2022/08/05 07:08:31;;;;;;;13.85;6.75;;;;;;;;;;5029503;28;20060;-66
2022/08/05 07:10:57;;;;;;;15.93;7.55;;;;;;;;;;5025531;28;20029;-66
2022/08/05 07:18:50;;;;;;;;;;;;;;;;;;5024710;28;20055;-66
2022/08/05 07:21:15;;;;;;;13.07;7.05;;;;;;;;;;5024033;28;19913;-64
2022/08/05 07:23:41;;;;;;;11.63;6.68;;;;;;;;;;5019777;28;20061;-66
2022/08/05 07:26:06;;;;;;;15.48;6.90;;;;;;;;;;5024276;28;20113;-66
2022/08/05 07:28:31;;;;;;;14.52;7.25;;;;;;;;;;5026222;28;20025;-66
2022/08/05 07:30:57;;;;;;;15.65;8.05;;;;;;;;;;5026356;28;20045;-66
2022/08/05 07:33:22;;;;;;;16.60;7.30;;;;;;;;;;5022649;28;20586;-65
2022/08/05 07:35:48;;;;;;;18.08;7.75;;;;;;;;;;5028777;28;20581;-65
2022/08/05 07:38:14;;;;;;;16.95;6.90;;;;;;;;;;5028359;28;20487;-65
2022/08/05 07:40:40;;;;;;;14.90;7.57;;;;;;;;;;5024261;28;20079;-65
2022/08/05 07:43:06;;;;;;;15.30;7.20;;;;;;;;;;5021194;28;20045;-66
2022/08/05 07:45:31;;;;;;;15.48;7.18;;;;;;;;;;5027164;28;20045;-65
2022/08/05 07:47:57;;;;;;;14.68;7.22;;;;;;;;;;5022337;28;20429;-66
2022/08/05 07:50:23;;;;;;;15.60;7.43;;;;;;;;;;5021330;28;20060;-68
2022/08/05 07:52:48;;;;;;;13.43;6.63;;;;;;;;;;5022741;28;20029;-66
2022/08/05 07:55:13;;;;;;;17.05;7.25;;;;;;;;;;5023798;28;20057;-67
2022/08/05 07:57:39;;;;;;;14.90;7.55;;;;;;;;;;5022368;28;20038;-67
2022/08/05 08:00:05;;;;;;;13.63;6.78;;;;;;;;;;5009789;28;20045;-67
2022/08/05 08:02:31;;;;;;;17.83;8.55;;;;;;;;;;5008875;28;20038;-67
2022/08/05 08:04:58;;;;;;;11.55;6.75;;;;;;;;;;5034646;28;20482;-67
2022/08/05 08:07:23;;;;;;;13.20;6.70;;;;;;;;;;5027171;28;20047;-67
2022/08/05 08:09:49;;;;;;;14.40;7.35;;;;;;;;;;5024017;28;20709;-67
2022/08/05 08:12:15;;;;;;;15.73;7.97;;;;;;;;;;5025130;28;20140;-67
2022/08/05 08:14:41;;;;;;;13.38;8.00;;;;;;;;;;5016749;28;20566;-67
2022/08/05 08:17:09;;;;;;;15.98;7.95;;;;;;;;;;5008238;28;20038;-67
2022/08/05 08:19:38;;;;;;;14.20;8.25;;;;;;;;;;5008803;28;20120;-67
2022/08/05 08:22:04;;;;;;;13.75;7.28;;;;;;;;;;5025638;28;20034;-67
2022/08/05 08:24:30;;;;;;;13.23;7.80;;;;;;;;;;5021678;28;20041;-68
2022/08/05 08:26:56;;;;;;;14.98;8.45;;;;;;;;;;5028155;28;20049;-67
2022/08/05 08:29:21;;;;;;;13.52;7.82;;;;;;;;;;5028347;28;20048;-67
2022/08/05 08:31:47;;;;;;;11.15;6.82;;;;;;;;;;5027186;28;20036;-67
2022/08/05 08:34:13;;;;;;;11.93;6.65;;;;;;;;;;5026233;28;20100;-67
2022/08/05 08:36:38;;;;;;;16.13;7.65;;;;;;;;;;5024157;28;20096;-67
2022/08/05 08:39:04;;;;;;;13.23;8.13;;;;;;;;;;5021668;28;20120;-67
2022/08/05 08:41:32;;;;;;;9.10;6.72;;;;;;;;;;5022565;28;20108;-67
2022/08/05 08:43:58;;;;;;;12.40;7.40;;;;;;;;;;5021470;28;20025;-67
2022/08/05 08:46:29;;;;;;;15.52;7.45;;;;;;;;;;5016213;28;20021;-67
2022/08/05 08:48:56;;;;;;;13.27;6.47;;;;;;;;;;5026432;28;20068;-67
2022/08/05 08:51:23;;;;;;;13.13;6.82;;;;;;;;;;5019373;28;20037;-67
2022/08/05 08:53:48;;;;;;;17.48;7.47;;;;;;;;;;5019995;28;20167;-67
2022/08/05 08:56:15;;;;;;;9.70;6.10;;;;;;;;;;5014062;28;20572;-67
2022/08/05 08:58:41;;;;;;;8.35;4.70;;;;;;;;;;5015669;28;20029;-67
2022/08/05 09:01:07;;;;;;;5.95;3.85;;;;;;;;;;5013504;28;20081;-67
2022/08/05 09:03:34;;;;;;;8.95;5.57;;;;;;;;;;5020040;28;20525;-67
2022/08/05 09:05:59;;;;;;;9.75;4.78;;;;;;;;;;5018419;28;20107;-67
2022/08/05 09:08:25;;;;;;;10.90;5.28;;;;;;;;;;5020416;28;20037;-67
2022/08/05 09:10:50;;;;;;;7.55;4.85;;;;;;;;;;5022791;28;20038;-67
2022/08/05 09:13:16;;;;;;;8.10;4.15;;;;;;;;;;5025072;28;20078;-68
2022/08/05 09:15:42;;;;;;;8.93;4.80;;;;;;;;;;5018405;28;20045;-67
2022/08/05 09:18:08;;;;;;;8.35;4.65;;;;;;;;;;5023910;28;20034;-67
2022/08/05 09:20:33;;;;;;;12.07;4.57;;;;;;;;;;5020508;28;20124;-67
2022/08/05 09:23:12;;;;;;;11.43;4.53;;;;;;;;;;5028679;28;20111;-67
2022/08/05 09:25:40;;;;;;;6.20;4.07;;;;;;;;;;5024539;28;20029;-67
2022/08/05 09:28:09;;;;;;;7.55;4.13;;;;;;;;;;5022851;28;20037;-67
2022/08/05 09:30:35;;;;;;;6.45;4.35;;;;;;;;;;5024262;28;20041;-67
2022/08/05 09:33:01;;;;;;;4.75;3.00;;;;;;;;;;5027545;28;20091;-68
2022/08/05 09:35:27;;;;;;;6.03;3.42;;;;;;;;;;5024513;28;20418;-67
2022/08/05 09:37:53;;;;;;;7.20;3.38;;;;;;;;;;5015579;28;20515;-67
2022/08/05 09:40:39;;;;;;;6.13;3.67;;;;;;;;;;5022634;28;20030;-67
2022/08/05 09:43:06;;;;;;;8.63;3.50;;;;;;;;;;5022754;28;20045;-67
2022/08/05 09:45:39;;;;;;;3.67;2.65;;;;;;;;;;5017620;28;20529;-67
2022/08/05 09:48:33;;;;;;;3.97;2.83;;;;;;;;;;5025629;28;20044;-67
2022/08/05 09:51:10;;;;;;;4.50;3.05;;;;;;;;;;5024323;28;20039;-67
2022/08/05 09:53:50;;;;;;;3.55;2.80;;;;;;;;;;5027420;28;20598;-67
2022/08/05 09:56:34;;;;;;;4.82;2.63;;;;;;;;;;5026554;28;20037;-67
2022/08/05 09:59:07;;;;;;;3.72;2.20;;;;;;;;;;5028102;28;20038;-67
2022/08/05 10:01:35;;;;;;;4.72;2.40;;;;;;;;;;5020108;28;20097;-67
2022/08/05 10:04:09;;;;;;;6.95;2.40;;;;;;;;;;5030761;28;20101;-68
2022/08/05 10:06:35;;;;;;;4.88;2.50;;;;;;;;;;5025032;28;20085;-67
2022/08/05 10:09:17;;;;;;;4.68;2.50;;;;;;;;;;5027402;28;20651;-68
2022/08/05 10:11:44;;;;;;;4.50;2.58;;;;;;;;;;5026284;28;20053;-67
2022/08/05 10:14:30;;;;;;;3.95;2.90;;;;;;;;;;5028241;28;20041;-68
2022/08/05 10:17:10;;;;;;;3.72;2.80;;;;;;;;;;5020553;28;20041;-67
2022/08/05 10:19:36;;;;;;;3.90;2.78;;;;;;;;;;5018164;28;20037;-67
2022/08/05 10:22:02;;;;;;;7.20;3.00;;;;;;;;;;5029753;28;20177;-67
2022/08/05 10:24:30;;;;;;;4.78;3.40;;;;;;;;;;5023961;28;20114;-67
2022/08/05 10:26:58;;;;;;;7.60;3.42;;;;;;;;;;5022004;28;20037;-68
2022/08/05 10:29:25;;;;;;;7.22;4.03;;;;;;;;;;5024461;28;20503;-67
2022/08/05 10:31:51;;;;;;;5.32;4.07;;;;;;;;;;5021047;28;20044;-67
2022/08/05 10:34:16;;;;;;;6.32;4.60;;;;;;;;;;5027083;28;20044;-67
2022/08/05 10:36:42;;;;;;;7.18;5.20;;;;;;;;;;5024339;28;20042;-67
2022/08/05 10:39:32;;;;;;;5.78;4.28;;;;;;;;;;5024512;28;20044;-68
2022/08/05 10:42:17;;;;;;;11.10;4.82;;;;;;;;;;5024489;28;20045;-67
2022/08/05 10:44:44;;;;;;;5.35;4.25;;;;;;;;;;5028608;28;20106;-67
2022/08/05 10:47:11;;;;;;;6.57;4.57;;;;;;;;;;5026259;28;20427;-67
2022/08/05 10:49:59;;;;;;;7.28;5.30;;;;;;;;;;5028525;28;20593;-67
2022/08/05 10:52:58;;;;;;;6.70;4.70;;;;;;;;;;5028652;28;20052;-68
2022/08/05 10:55:25;;;;;;;7.40;4.32;;;;;;;;;;5024179;28;20129;-68
2022/08/05 10:58:22;;;;;;;7.40;5.75;;;;;;;;;;5027592;28;20518;-67
2022/08/05 11:00:48;;;;;;;7.75;6.80;;;;;;;;;;5000309;28;20427;-68
2022/08/05 11:03:13;;;;;;;7.35;6.03;;;;;;;;;;5026677;28;20030;-67
2022/08/05 11:05:39;;;;;;;7.32;6.13;;;;;;;;;;5019810;28;20033;-67
2022/08/05 11:08:07;;;;;;;9.55;6.90;;;;;;;;;;5022058;28;20029;-67
2022/08/05 11:10:36;;;;;;;8.57;6.43;;;;;;;;;;5020558;28;20134;-67
2022/08/05 11:13:02;;;;;;;9.20;6.00;;;;;;;;;;5017416;28;20091;-67
2022/08/05 11:15:39;;;;;;;6.93;5.68;;;;;;;;;;5021731;28;20108;-67
2022/08/05 11:18:12;;;;;;;5.80;3.80;;;;;;;;;;5023704;28;20041;-67
2022/08/05 11:20:45;;;;;;;;;;;;;;;;;;5022475;28;20040;-67
2022/08/05 11:23:51;;;;;;;7.32;3.25;;;;;;;;;;5019775;28;19952;-67
2022/08/05 11:26:17;;;;;;;5.65;3.40;;;;;;;;;;5020521;28;20418;-67
2022/08/05 11:28:47;;;;;;;7.25;3.60;;;;;;;;;;5021453;28;20030;-67
2022/08/05 11:31:13;;;;;;;5.78;3.88;;;;;;;;;;5017968;28;20033;-67
2022/08/05 11:33:47;;;;;;;4.32;3.20;;;;;;;;;;5026218;28;20918;-67
2022/08/05 11:36:15;;;;;;;5.13;3.20;;;;;;;;;;5027094;28;20843;-67
2022/08/05 11:38:41;;;;;;;6.53;3.53;;;;;;;;;;5023558;28;20113;-67
2022/08/05 11:41:19;;;;;;;5.57;3.28;;;;;;;;;;5023538;28;20094;-67
2022/08/05 11:44:06;;;;;;;6.15;3.40;;;;;;;;;;5019198;28;20725;-67
2022/08/05 11:46:34;;;;;;;3.75;2.97;;;;;;;;;;5018550;28;20442;-67
2022/08/05 11:49:00;;;;;;;5.47;3.00;;;;;;;;;;5017515;28;20103;-68
2022/08/05 11:51:27;;;;;;;4.90;3.00;;;;;;;;;;5019068;28;20034;-67
2022/08/05 11:53:54;;;;;;;3.38;2.60;;;;;;;;;;5020972;28;20209;-67
2022/08/05 11:56:20;;;;;;;5.13;3.05;;;;;;;;;;5023166;28;20033;-67
2022/08/05 11:58:47;;;;;;;2.38;1.70;;;;;;;;;;5022724;28;20156;-67
2022/08/05 12:01:14;;;;;;;4.07;1.90;;;;;;;;;;5019029;28;20029;-67
2022/08/05 12:03:53;;;;;;;2.97;2.20;;;;;;;;;;5022982;28;20089;-68
2022/08/05 12:06:23;;;;;;;4.72;1.60;;;;;;;;;;5017941;28;20033;-67
2022/08/05 12:08:53;;;;;;;3.65;1.75;;;;;;;;;;5019412;28;21317;-67
2022/08/05 12:11:20;;;;;;;5.00;1.70;;;;;;;;;;5022113;28;20041;-67
2022/08/05 12:13:52;;;;;;;2.08;1.88;;;;;;;;;;5021865;28;20028;-67
2022/08/05 12:16:18;;;;;;;2.93;1.90;;;;;;;;;;5013978;28;20293;-67
2022/08/05 12:18:44;;;;;;;3.58;1.52;;;;;;;;;;5016256;28;20040;-67
2022/08/05 12:21:16;;;;;;;1.90;1.40;;;;;;;;;;5024400;28;20041;-67
2022/08/05 12:24:01;;;;;;;1.73;1.38;;;;;;;;;;5023079;28;20514;-68
2022/08/05 12:26:53;;;;;;;6.25;1.55;;;;;;;;;;5022964;28;20104;-68
2022/08/05 12:29:20;;;;;;;1.40;1.20;;;;;;;;;;5020828;28;20040;-67
2022/08/05 12:31:49;;;;;;;3.40;1.67;;;;;;;;;;5022807;28;20036;-67
2022/08/05 12:34:16;;;;;;;2.38;2.15;;;;;;;;;;5027652;28;20025;-67
2022/08/05 12:36:42;;;;;;;2.38;2.17;;;;;;;;;;5025548;28;20067;-67
2022/08/05 12:39:08;;;;;;;3.58;2.20;;;;;;;;;;5025959;28;20048;-67
2022/08/05 12:41:36;;;;;;;4.07;1.98;;;;;;;;;;5023273;28;20140;-67
2022/08/05 12:44:05;;;;;;;3.15;1.67;;;;;;;;;;5021037;28;20025;-67
2022/08/05 12:46:32;;;;;;;2.78;1.70;;;;;;;;;;5019848;28;20053;-67
2022/08/05 12:49:09;;;;;;;3.00;1.88;;;;;;;;;;5019166;28;20064;-67
2022/08/05 12:51:49;;;;;;;2.78;1.73;;;;;;;;;;5022526;28;20036;-68
2022/08/05 12:54:21;;;;;;;1.58;1.40;;;;;;;;;;5017548;28;20093;-67
2022/08/05 12:56:50;;;;;;;4.53;2.00;;;;;;;;;;5023646;28;20037;-68
2022/08/05 12:59:18;;;;;;;1.20;1.10;;;;;;;;;;5016191;28;20508;-67
2022/08/05 13:01:59;;;;;;;2.45;1.10;;;;;;;;;;5025380;28;20112;-67
2022/08/05 13:04:32;;;;;;;5.35;1.20;;;;;;;;;;5020213;28;20026;-67
2022/08/05 13:06:59;;;;;;;1.67;1.10;;;;;;;;;;5029982;28;20120;-67
2022/08/05 13:09:27;;;;;;;1.77;1.25;;;;;;;;;;5026032;28;20030;-67
2022/08/05 13:12:04;;;;;;;2.22;1.23;;;;;;;;;;5024445;28;20040;-67
2022/08/05 13:14:38;;;;;;;1.88;1.10;;;;;;;;;;5025937;28;20380;-68
2022/08/05 13:17:09;;;;;;;2.03;1.40;;;;;;;;;;5024562;28;20049;-67
2022/08/05 13:19:34;;;;;;;1.63;1.40;;;;;;;;;;5019945;28;20018;-67
2022/08/05 13:22:00;;;;;;;1.73;1.10;;;;;;;;;;5023800;28;20114;-67
2022/08/05 13:24:25;;;;;;;6.22;1.30;;;;;;;;;;5026365;28;20053;-67
2022/08/05 13:26:51;;;;;;;1.63;1.10;;;;;;;;;;5019321;28;20126;-67
2022/08/05 13:29:18;;;;;;;3.10;1.10;;;;;;;;;;5016917;28;20053;-67
2022/08/05 13:31:44;;;;;;;1.05;0.90;;;;;;;;;;5016739;28;20040;-67
2022/08/05 13:34:10;;;;;;;1.00;0.90;;;;;;;;;;5019963;28;20052;-67
2022/08/05 13:36:36;;;;;;;1.00;0.73;;;;;;;;;;5018786;28;20045;-67
2022/08/05 13:39:03;;;;;;;1.10;0.90;;;;;;;;;;5019317;28;20029;-67
2022/08/05 13:41:29;;;;;;;4.13;1.42;;;;;;;;;;5022621;28;20115;-67
2022/08/05 13:43:55;;;;;;;3.80;1.02;;;;;;;;;;5021226;28;20045;-67
2022/08/05 13:46:24;;;;;;;2.45;0.90;;;;;;;;;;5021658;28;20024;-67
2022/08/05 13:48:50;;;;;;;1.42;1.15;;;;;;;;;;5017705;28;20084;-67
2022/08/05 13:51:24;;;;;;;1.55;0.98;;;;;;;;;;5021941;28;20037;-67
2022/08/05 13:53:49;;;;;;;1.17;1.02;;;;;;;;;;5021678;28;20051;-67
2022/08/05 13:56:15;;;;;;;2.33;1.00;;;;;;;;;;5021856;28;20029;-67
2022/08/05 13:58:40;;;;;;;2.38;1.00;;;;;;;;;;5026697;28;20734;-67
2022/08/05 14:01:05;;;;;;;2.00;1.00;;;;;;;;;;5022164;28;21559;-67
2022/08/05 14:03:31;;;;;;;1.05;0.90;;;;;;;;;;5028407;28;20038;-67
2022/08/05 14:05:56;;;;;;;1.75;1.00;;;;;;;;;;5016696;28;20578;-67
2022/08/05 14:08:21;;;;;;;2.13;0.90;;;;;;;;;;5024648;28;20546;-67
2022/08/05 14:10:47;;;;;;;2.45;1.00;;;;;;;;;;5023685;28;20038;-67
2022/08/05 14:13:12;;;;;;;3.83;1.08;;;;;;;;;;5022679;28;20048;-67
2022/08/05 14:15:37;;;;;;;3.00;0.90;;;;;;;;;;5024805;28;20049;-67
2022/08/05 14:18:03;;;;;;;1.95;0.90;;;;;;;;;;5020708;28;20037;-67
2022/08/05 14:20:30;;;;;;;1.27;1.00;;;;;;;;;;5024449;28;20128;-67
2022/08/05 14:22:58;;;;;;;2.97;1.40;;;;;;;;;;5020796;28;20645;-67
2022/08/05 14:25:24;;;;;;;1.17;0.90;;;;;;;;;;5024088;28;20079;-67
2022/08/05 14:27:50;;;;;;;1.10;1.00;;;;;;;;;;5028840;28;20037;-67
2022/08/05 14:30:16;;;;;;;1.00;0.90;;;;;;;;;;5012913;28;20454;-67
2022/08/05 14:32:42;;;;;;;1.30;0.90;;;;;;;;;;5028805;28;20117;-67
2022/08/05 14:35:08;;;;;;;4.90;1.15;;;;;;;;;;5031117;28;20119;-67
2022/08/05 14:37:33;;;;;;;1.50;1.00;;;;;;;;;;5019479;28;20028;-67
2022/08/05 14:39:58;;;;;;;2.08;1.17;;;;;;;;;;5022108;28;20038;-67
2022/08/05 14:42:24;;;;;;;2.17;1.20;;;;;;;;;;5024258;28;20107;-67
2022/08/05 14:44:49;;;;;;;1.90;1.00;;;;;;;;;;5024526;28;20577;-67
2022/08/05 14:47:15;;;;;;;3.72;1.10;;;;;;;;;;5024390;28;20053;-67
2022/08/05 14:49:40;;;;;;;2.95;1.08;;;;;;;;;;5023536;28;20033;-67